sensor_id;sensor_type;location;lat;lon;timestamp;P1;durP1;ratioP1;P2;durP2;ratioP2
67132;SDS011;54052;53.542;49.408;2022-07-18T00:01:36;10.70;;;1.90;;
67132;SDS011;54052;53.542;49.408;2022-07-18T00:04:02;5.75;;;1.80;;
67132;SDS011;54052;53.542;49.408;2022-07-18T00:06:34;5.07;;;1.87;;
67132;SDS011;54052;53.542;49.408;2022-07-18T00:09:00;4.85;;;1.65;;
67132;SDS011;54052;53.542;49.408;2022-07-18T00:11:27;8.13;;;1.50;;
67132;SDS011;54052;53.542;49.408;2022-07-18T00:13:53;8.93;;;1.67;;
67132;SDS011;54052;53.542;49.408;2022-07-18T00:16:19;7.45;;;1.83;;
67132;SDS011;54052;53.542;49.408;2022-07-18T00:18:45;10.45;;;1.92;;
67132;SDS011;54052;53.542;49.408;2022-07-18T00:21:11;4.43;;;1.60;;
67132;SDS011;54052;53.542;49.408;2022-07-18T00:23:37;4.43;;;1.77;;
67132;SDS011;54052;53.542;49.408;2022-07-18T00:26:04;3.30;;;1.60;;
67132;SDS011;54052;53.542;49.408;2022-07-18T00:28:30;3.97;;;1.65;;
67132;SDS011;54052;53.542;49.408;2022-07-18T00:30:59;5.30;;;1.88;;
67132;SDS011;54052;53.542;49.408;2022-07-18T00:33:25;4.20;;;1.63;;
67132;SDS011;54052;53.542;49.408;2022-07-18T00:35:51;5.25;;;1.83;;
67132;SDS011;54052;53.542;49.408;2022-07-18T00:38:17;3.42;;;1.48;;
67132;SDS011;54052;53.542;49.408;2022-07-18T00:40:43;3.63;;;1.52;;
67132;SDS011;54052;53.542;49.408;2022-07-18T00:43:12;11.13;;;1.90;;
67132;SDS011;54052;53.542;49.408;2022-07-18T00:45:39;3.55;;;1.67;;
67132;SDS011;54052;53.542;49.408;2022-07-18T00:48:18;3.67;;;1.40;;
67132;SDS011;54052;53.542;49.408;2022-07-18T00:50:45;5.95;;;1.50;;
67132;SDS011;54052;53.542;49.408;2022-07-18T00:53:11;5.45;;;1.70;;
67132;SDS011;54052;53.542;49.408;2022-07-18T00:55:38;6.88;;;1.67;;
67132;SDS011;54052;53.542;49.408;2022-07-18T00:58:05;4.38;;;2.03;;
67132;SDS011;54052;53.542;49.408;2022-07-18T01:00:32;8.52;;;1.50;;
67132;SDS011;54052;53.542;49.408;2022-07-18T01:03:17;5.88;;;1.48;;
67132;SDS011;54052;53.542;49.408;2022-07-18T01:05:46;3.35;;;1.30;;
67132;SDS011;54052;53.542;49.408;2022-07-18T01:08:12;7.22;;;1.83;;
67132;SDS011;54052;53.542;49.408;2022-07-18T01:10:39;5.65;;;1.98;;
67132;SDS011;54052;53.542;49.408;2022-07-18T01:13:05;6.72;;;1.88;;
67132;SDS011;54052;53.542;49.408;2022-07-18T01:15:31;3.38;;;1.73;;
67132;SDS011;54052;53.542;49.408;2022-07-18T01:17:57;3.65;;;1.75;;
67132;SDS011;54052;53.542;49.408;2022-07-18T01:20:27;8.52;;;2.60;;
67132;SDS011;54052;53.542;49.408;2022-07-18T01:22:54;16.42;;;1.60;;
67132;SDS011;54052;53.542;49.408;2022-07-18T01:25:20;8.20;;;1.73;;
67132;SDS011;54052;53.542;49.408;2022-07-18T01:27:46;4.60;;;1.65;;
67132;SDS011;54052;53.542;49.408;2022-07-18T01:30:12;10.20;;;2.00;;
67132;SDS011;54052;53.542;49.408;2022-07-18T01:32:38;10.15;;;2.08;;
67132;SDS011;54052;53.542;49.408;2022-07-18T01:35:04;4.38;;;1.73;;
67132;SDS011;54052;53.542;49.408;2022-07-18T01:37:31;5.20;;;1.70;;
67132;SDS011;54052;53.542;49.408;2022-07-18T01:39:57;11.35;;;1.95;;
67132;SDS011;54052;53.542;49.408;2022-07-18T01:42:23;5.35;;;1.80;;
67132;SDS011;54052;53.542;49.408;2022-07-18T01:44:49;7.60;;;1.80;;
67132;SDS011;54052;53.542;49.408;2022-07-18T01:47:15;7.43;;;1.63;;
67132;SDS011;54052;53.542;49.408;2022-07-18T01:49:42;4.78;;;2.08;;
67132;SDS011;54052;53.542;49.408;2022-07-18T01:52:08;10.77;;;2.00;;
67132;SDS011;54052;53.542;49.408;2022-07-18T01:54:36;5.93;;;1.60;;
67132;SDS011;54052;53.542;49.408;2022-07-18T01:57:04;4.05;;;1.75;;
67132;SDS011;54052;53.542;49.408;2022-07-18T01:59:31;22.15;;;2.30;;
67132;SDS011;54052;53.542;49.408;2022-07-18T02:01:58;10.23;;;3.47;;
67132;SDS011;54052;53.542;49.408;2022-07-18T02:04:24;8.45;;;1.80;;
67132;SDS011;54052;53.542;49.408;2022-07-18T02:07:10;11.60;;;1.45;;
67132;SDS011;54052;53.542;49.408;2022-07-18T02:09:36;18.73;;;1.83;;
67132;SDS011;54052;53.542;49.408;2022-07-18T02:12:03;8.65;;;1.90;;
67132;SDS011;54052;53.542;49.408;2022-07-18T02:14:29;20.30;;;2.28;;
67132;SDS011;54052;53.542;49.408;2022-07-18T02:16:55;13.40;;;1.85;;
67132;SDS011;54052;53.542;49.408;2022-07-18T02:19:21;10.43;;;1.85;;
67132;SDS011;54052;53.542;49.408;2022-07-18T02:21:47;10.93;;;1.88;;
67132;SDS011;54052;53.542;49.408;2022-07-18T02:24:13;12.48;;;1.83;;
67132;SDS011;54052;53.542;49.408;2022-07-18T02:26:39;5.22;;;1.25;;
67132;SDS011;54052;53.542;49.408;2022-07-18T02:29:05;5.10;;;1.95;;
67132;SDS011;54052;53.542;49.408;2022-07-18T02:31:31;4.43;;;1.63;;
67132;SDS011;54052;53.542;49.408;2022-07-18T02:33:57;4.93;;;1.30;;
67132;SDS011;54052;53.542;49.408;2022-07-18T02:36:23;6.65;;;1.63;;
67132;SDS011;54052;53.542;49.408;2022-07-18T02:38:49;9.07;;;1.67;;
67132;SDS011;54052;53.542;49.408;2022-07-18T02:41:15;9.02;;;1.35;;
67132;SDS011;54052;53.542;49.408;2022-07-18T02:43:41;2.88;;;1.50;;
67132;SDS011;54052;53.542;49.408;2022-07-18T02:46:08;11.02;;;1.63;;
67132;SDS011;54052;53.542;49.408;2022-07-18T02:48:34;6.40;;;1.67;;
67132;SDS011;54052;53.542;49.408;2022-07-18T02:51:00;4.55;;;1.48;;
67132;SDS011;54052;53.542;49.408;2022-07-18T02:53:26;13.82;;;1.75;;
67132;SDS011;54052;53.542;49.408;2022-07-18T02:55:52;12.45;;;2.42;;
67132;SDS011;54052;53.542;49.408;2022-07-18T02:58:24;10.07;;;2.05;;
67132;SDS011;54052;53.542;49.408;2022-07-18T03:00:50;4.30;;;1.67;;
67132;SDS011;54052;53.542;49.408;2022-07-18T03:03:16;7.13;;;2.17;;
67132;SDS011;54052;53.542;49.408;2022-07-18T03:05:42;5.20;;;1.35;;
67132;SDS011;54052;53.542;49.408;2022-07-18T03:08:08;7.47;;;1.98;;
67132;SDS011;54052;53.542;49.408;2022-07-18T03:10:34;9.20;;;1.50;;
67132;SDS011;54052;53.542;49.408;2022-07-18T03:13:01;11.80;;;2.42;;
67132;SDS011;54052;53.542;49.408;2022-07-18T03:15:27;11.98;;;1.50;;
67132;SDS011;54052;53.542;49.408;2022-07-18T03:17:53;10.85;;;2.13;;
67132;SDS011;54052;53.542;49.408;2022-07-18T03:20:19;7.25;;;2.03;;
67132;SDS011;54052;53.542;49.408;2022-07-18T03:22:45;11.05;;;1.88;;
67132;SDS011;54052;53.542;49.408;2022-07-18T03:25:11;2.72;;;1.83;;
67132;SDS011;54052;53.542;49.408;2022-07-18T03:27:37;13.43;;;2.45;;
67132;SDS011;54052;53.542;49.408;2022-07-18T03:30:03;8.98;;;1.88;;
67132;SDS011;54052;53.542;49.408;2022-07-18T03:32:30;6.80;;;1.70;;
67132;SDS011;54052;53.542;49.408;2022-07-18T03:34:56;6.95;;;2.50;;
67132;SDS011;54052;53.542;49.408;2022-07-18T03:37:22;10.57;;;2.42;;
67132;SDS011;54052;53.542;49.408;2022-07-18T03:39:48;5.45;;;2.10;;
67132;SDS011;54052;53.542;49.408;2022-07-18T03:42:14;11.32;;;2.53;;
67132;SDS011;54052;53.542;49.408;2022-07-18T03:44:40;14.68;;;3.63;;
67132;SDS011;54052;53.542;49.408;2022-07-18T03:47:07;23.25;;;2.85;;
67132;SDS011;54052;53.542;49.408;2022-07-18T03:49:35;17.65;;;3.50;;
67132;SDS011;54052;53.542;49.408;2022-07-18T03:52:01;5.50;;;2.33;;
67132;SDS011;54052;53.542;49.408;2022-07-18T03:54:28;14.13;;;3.13;;
67132;SDS011;54052;53.542;49.408;2022-07-18T03:56:54;13.63;;;2.97;;
67132;SDS011;54052;53.542;49.408;2022-07-18T03:59:20;11.73;;;2.70;;
67132;SDS011;54052;53.542;49.408;2022-07-18T04:01:46;11.45;;;2.78;;
67132;SDS011;54052;53.542;49.408;2022-07-18T04:04:12;22.33;;;2.15;;
67132;SDS011;54052;53.542;49.408;2022-07-18T04:06:38;17.92;;;1.75;;
67132;SDS011;54052;53.542;49.408;2022-07-18T04:09:04;15.52;;;2.22;;
67132;SDS011;54052;53.542;49.408;2022-07-18T04:11:31;31.60;;;2.30;;
67132;SDS011;54052;53.542;49.408;2022-07-18T04:13:57;19.63;;;1.63;;
67132;SDS011;54052;53.542;49.408;2022-07-18T04:16:23;12.43;;;1.55;;
67132;SDS011;54052;53.542;49.408;2022-07-18T04:18:49;18.45;;;4.15;;
67132;SDS011;54052;53.542;49.408;2022-07-18T04:21:15;19.08;;;4.18;;
67132;SDS011;54052;53.542;49.408;2022-07-18T04:23:42;7.13;;;2.10;;
67132;SDS011;54052;53.542;49.408;2022-07-18T04:26:08;51.92;;;4.32;;
67132;SDS011;54052;53.542;49.408;2022-07-18T04:28:35;24.90;;;3.25;;
67132;SDS011;54052;53.542;49.408;2022-07-18T04:31:02;9.27;;;2.45;;
67132;SDS011;54052;53.542;49.408;2022-07-18T04:33:30;12.40;;;2.28;;
67132;SDS011;54052;53.542;49.408;2022-07-18T04:35:57;4.68;;;2.10;;
67132;SDS011;54052;53.542;49.408;2022-07-18T04:38:24;9.05;;;3.35;;
67132;SDS011;54052;53.542;49.408;2022-07-18T04:40:50;6.10;;;2.25;;
67132;SDS011;54052;53.542;49.408;2022-07-18T04:43:16;7.03;;;2.55;;
67132;SDS011;54052;53.542;49.408;2022-07-18T04:45:42;9.00;;;2.92;;
67132;SDS011;54052;53.542;49.408;2022-07-18T04:48:08;8.57;;;2.38;;
67132;SDS011;54052;53.542;49.408;2022-07-18T04:50:34;13.63;;;2.03;;
67132;SDS011;54052;53.542;49.408;2022-07-18T04:53:00;24.67;;;4.97;;
67132;SDS011;54052;53.542;49.408;2022-07-18T04:55:26;20.52;;;5.13;;
67132;SDS011;54052;53.542;49.408;2022-07-18T04:57:53;15.98;;;6.90;;
67132;SDS011;54052;53.542;49.408;2022-07-18T05:00:21;25.38;;;7.13;;
67132;SDS011;54052;53.542;49.408;2022-07-18T05:02:49;25.67;;;10.32;;
67132;SDS011;54052;53.542;49.408;2022-07-18T05:05:17;26.45;;;10.00;;
67132;SDS011;54052;53.542;49.408;2022-07-18T05:07:45;34.05;;;10.45;;
67132;SDS011;54052;53.542;49.408;2022-07-18T05:10:12;40.03;;;10.75;;
67132;SDS011;54052;53.542;49.408;2022-07-18T05:12:41;20.85;;;7.28;;
67132;SDS011;54052;53.542;49.408;2022-07-18T05:15:09;28.10;;;10.57;;
67132;SDS011;54052;53.542;49.408;2022-07-18T05:17:37;41.42;;;12.93;;
67132;SDS011;54052;53.542;49.408;2022-07-18T05:20:05;32.58;;;14.32;;
67132;SDS011;54052;53.542;49.408;2022-07-18T05:22:33;41.65;;;13.15;;
67132;SDS011;54052;53.542;49.408;2022-07-18T05:24:59;27.73;;;10.43;;
67132;SDS011;54052;53.542;49.408;2022-07-18T05:27:26;36.15;;;9.05;;
67132;SDS011;54052;53.542;49.408;2022-07-18T05:29:52;23.10;;;4.93;;
67132;SDS011;54052;53.542;49.408;2022-07-18T05:32:18;17.20;;;5.90;;
67132;SDS011;54052;53.542;49.408;2022-07-18T05:34:44;13.60;;;6.03;;
67132;SDS011;54052;53.542;49.408;2022-07-18T05:37:11;21.42;;;6.95;;
67132;SDS011;54052;53.542;49.408;2022-07-18T05:39:37;20.52;;;7.15;;
67132;SDS011;54052;53.542;49.408;2022-07-18T05:42:03;22.77;;;6.90;;
67132;SDS011;54052;53.542;49.408;2022-07-18T05:44:29;18.23;;;6.72;;
67132;SDS011;54052;53.542;49.408;2022-07-18T05:46:55;24.95;;;6.95;;
67132;SDS011;54052;53.542;49.408;2022-07-18T05:49:21;27.27;;;6.75;;
67132;SDS011;54052;53.542;49.408;2022-07-18T05:51:47;26.38;;;5.30;;
67132;SDS011;54052;53.542;49.408;2022-07-18T05:54:14;8.98;;;4.35;;
67132;SDS011;54052;53.542;49.408;2022-07-18T05:56:45;26.02;;;4.85;;
67132;SDS011;54052;53.542;49.408;2022-07-18T05:59:16;22.58;;;4.65;;
67132;SDS011;54052;53.542;49.408;2022-07-18T06:01:43;16.63;;;4.45;;
67132;SDS011;54052;53.542;49.408;2022-07-18T06:04:09;11.80;;;3.00;;
67132;SDS011;54052;53.542;49.408;2022-07-18T06:06:36;12.43;;;2.70;;
67132;SDS011;54052;53.542;49.408;2022-07-18T06:09:16;9.98;;;3.58;;
67132;SDS011;54052;53.542;49.408;2022-07-18T06:11:43;9.43;;;2.78;;
67132;SDS011;54052;53.542;49.408;2022-07-18T06:14:09;11.25;;;3.35;;
67132;SDS011;54052;53.542;49.408;2022-07-18T06:16:35;11.70;;;2.30;;
67132;SDS011;54052;53.542;49.408;2022-07-18T06:19:04;7.90;;;3.63;;
67132;SDS011;54052;53.542;49.408;2022-07-18T06:21:30;12.93;;;2.25;;
67132;SDS011;54052;53.542;49.408;2022-07-18T06:23:56;4.55;;;1.70;;
67132;SDS011;54052;53.542;49.408;2022-07-18T06:26:23;16.92;;;3.72;;
67132;SDS011;54052;53.542;49.408;2022-07-18T06:28:49;16.70;;;4.25;;
67132;SDS011;54052;53.542;49.408;2022-07-18T06:31:15;26.73;;;9.30;;
67132;SDS011;54052;53.542;49.408;2022-07-18T06:33:42;26.02;;;6.70;;
67132;SDS011;54052;53.542;49.408;2022-07-18T06:36:12;11.38;;;5.20;;
67132;SDS011;54052;53.542;49.408;2022-07-18T06:38:38;12.05;;;3.53;;
67132;SDS011;54052;53.542;49.408;2022-07-18T06:41:06;6.43;;;4.32;;
67132;SDS011;54052;53.542;49.408;2022-07-18T06:43:33;14.43;;;5.53;;
67132;SDS011;54052;53.542;49.408;2022-07-18T06:46:01;15.80;;;6.78;;
67132;SDS011;54052;53.542;49.408;2022-07-18T06:48:27;20.50;;;8.68;;
67132;SDS011;54052;53.542;49.408;2022-07-18T06:50:59;22.92;;;10.82;;
67132;SDS011;54052;53.542;49.408;2022-07-18T06:53:26;27.17;;;7.60;;
67132;SDS011;54052;53.542;49.408;2022-07-18T06:55:52;24.58;;;8.13;;
67132;SDS011;54052;53.542;49.408;2022-07-18T06:58:18;27.45;;;10.10;;
67132;SDS011;54052;53.542;49.408;2022-07-18T07:00:44;49.13;;;13.95;;
67132;SDS011;54052;53.542;49.408;2022-07-18T07:03:10;51.65;;;16.58;;
67132;SDS011;54052;53.542;49.408;2022-07-18T07:05:36;35.67;;;10.93;;
67132;SDS011;54052;53.542;49.408;2022-07-18T07:08:02;16.63;;;3.97;;
67132;SDS011;54052;53.542;49.408;2022-07-18T07:10:29;23.33;;;3.78;;
67132;SDS011;54052;53.542;49.408;2022-07-18T07:12:55;14.25;;;3.55;;
67132;SDS011;54052;53.542;49.408;2022-07-18T07:15:22;12.10;;;5.20;;
67132;SDS011;54052;53.542;49.408;2022-07-18T07:17:49;16.75;;;6.32;;
67132;SDS011;54052;53.542;49.408;2022-07-18T07:20:15;15.30;;;5.35;;
67132;SDS011;54052;53.542;49.408;2022-07-18T07:22:44;13.15;;;6.18;;
67132;SDS011;54052;53.542;49.408;2022-07-18T07:25:12;19.77;;;6.05;;
67132;SDS011;54052;53.542;49.408;2022-07-18T07:27:39;37.00;;;6.93;;
67132;SDS011;54052;53.542;49.408;2022-07-18T07:30:06;19.95;;;5.30;;
67132;SDS011;54052;53.542;49.408;2022-07-18T07:32:36;12.73;;;3.55;;
67132;SDS011;54052;53.542;49.408;2022-07-18T07:35:05;22.23;;;6.93;;
67132;SDS011;54052;53.542;49.408;2022-07-18T07:37:35;18.98;;;6.32;;
67132;SDS011;54052;53.542;49.408;2022-07-18T07:40:02;13.68;;;6.05;;
67132;SDS011;54052;53.542;49.408;2022-07-18T07:42:29;18.77;;;6.40;;
67132;SDS011;54052;53.542;49.408;2022-07-18T07:44:55;17.02;;;5.47;;
67132;SDS011;54052;53.542;49.408;2022-07-18T07:47:24;16.85;;;4.75;;
67132;SDS011;54052;53.542;49.408;2022-07-18T07:49:50;17.23;;;5.35;;
67132;SDS011;54052;53.542;49.408;2022-07-18T07:52:16;15.48;;;5.47;;
67132;SDS011;54052;53.542;49.408;2022-07-18T07:54:44;20.48;;;5.25;;
67132;SDS011;54052;53.542;49.408;2022-07-18T07:57:12;17.70;;;5.50;;
67132;SDS011;54052;53.542;49.408;2022-07-18T07:59:39;12.30;;;4.82;;
67132;SDS011;54052;53.542;49.408;2022-07-18T08:02:05;13.25;;;4.72;;
67132;SDS011;54052;53.542;49.408;2022-07-18T08:04:31;14.43;;;5.13;;
67132;SDS011;54052;53.542;49.408;2022-07-18T08:06:57;11.95;;;3.25;;
67132;SDS011;54052;53.542;49.408;2022-07-18T08:09:23;27.60;;;4.95;;
67132;SDS011;54052;53.542;49.408;2022-07-18T08:11:49;18.35;;;3.40;;
67132;SDS011;54052;53.542;49.408;2022-07-18T08:14:15;13.95;;;4.38;;
67132;SDS011;54052;53.542;49.408;2022-07-18T08:16:42;15.70;;;3.50;;
67132;SDS011;54052;53.542;49.408;2022-07-18T08:19:08;4.47;;;2.60;;
67132;SDS011;54052;53.542;49.408;2022-07-18T08:21:34;19.00;;;3.40;;
67132;SDS011;54052;53.542;49.408;2022-07-18T08:24:00;19.98;;;2.53;;
67132;SDS011;54052;53.542;49.408;2022-07-18T08:26:26;4.60;;;2.45;;
67132;SDS011;54052;53.542;49.408;2022-07-18T08:28:52;8.93;;;3.47;;
67132;SDS011;54052;53.542;49.408;2022-07-18T08:31:18;11.65;;;2.72;;
67132;SDS011;54052;53.542;49.408;2022-07-18T08:33:45;6.57;;;3.20;;
67132;SDS011;54052;53.542;49.408;2022-07-18T08:36:11;11.35;;;2.78;;
67132;SDS011;54052;53.542;49.408;2022-07-18T08:38:37;11.10;;;2.08;;
67132;SDS011;54052;53.542;49.408;2022-07-18T08:41:03;14.07;;;1.90;;
67132;SDS011;54052;53.542;49.408;2022-07-18T08:43:30;4.60;;;1.80;;
67132;SDS011;54052;53.542;49.408;2022-07-18T08:46:01;3.85;;;1.30;;
67132;SDS011;54052;53.542;49.408;2022-07-18T08:48:28;13.60;;;3.92;;
67132;SDS011;54052;53.542;49.408;2022-07-18T08:50:58;15.27;;;4.45;;
67132;SDS011;54052;53.542;49.408;2022-07-18T08:53:26;21.15;;;3.70;;
67132;SDS011;54052;53.542;49.408;2022-07-18T08:55:52;9.18;;;3.53;;
67132;SDS011;54052;53.542;49.408;2022-07-18T08:58:19;7.25;;;3.10;;
67132;SDS011;54052;53.542;49.408;2022-07-18T09:00:46;13.85;;;3.42;;
67132;SDS011;54052;53.542;49.408;2022-07-18T09:03:12;9.48;;;3.70;;
67132;SDS011;54052;53.542;49.408;2022-07-18T09:05:39;7.03;;;2.25;;
67132;SDS011;54052;53.542;49.408;2022-07-18T09:08:08;4.60;;;2.00;;
67132;SDS011;54052;53.542;49.408;2022-07-18T09:10:57;9.15;;;2.47;;
67132;SDS011;54052;53.542;49.408;2022-07-18T09:13:39;7.93;;;1.40;;
67132;SDS011;54052;53.542;49.408;2022-07-18T09:18:39;6.82;;;2.17;;
67132;SDS011;54052;53.542;49.408;2022-07-18T09:21:12;9.20;;;2.80;;
67132;SDS011;54052;53.542;49.408;2022-07-18T09:23:42;8.63;;;3.22;;
67132;SDS011;54052;53.542;49.408;2022-07-18T09:26:10;8.05;;;1.95;;
67132;SDS011;54052;53.542;49.408;2022-07-18T09:28:50;6.20;;;2.17;;
67132;SDS011;54052;53.542;49.408;2022-07-18T09:31:18;7.22;;;1.70;;
67132;SDS011;54052;53.542;49.408;2022-07-18T09:33:55;5.40;;;1.77;;
67132;SDS011;54052;53.542;49.408;2022-07-18T09:36:23;1.83;;;1.20;;
67132;SDS011;54052;53.542;49.408;2022-07-18T09:38:50;7.28;;;1.30;;
67132;SDS011;54052;53.542;49.408;2022-07-18T09:41:24;3.95;;;1.52;;
67132;SDS011;54052;53.542;49.408;2022-07-18T09:43:52;6.60;;;1.20;;
67132;SDS011;54052;53.542;49.408;2022-07-18T09:46:18;4.50;;;0.95;;
67132;SDS011;54052;53.542;49.408;2022-07-18T09:48:44;3.38;;;1.33;;
67132;SDS011;54052;53.542;49.408;2022-07-18T09:51:11;4.43;;;1.30;;
67132;SDS011;54052;53.542;49.408;2022-07-18T09:53:50;10.77;;;1.15;;
67132;SDS011;54052;53.542;49.408;2022-07-18T09:56:23;5.07;;;1.33;;
67132;SDS011;54052;53.542;49.408;2022-07-18T09:58:51;3.95;;;1.30;;
67132;SDS011;54052;53.542;49.408;2022-07-18T10:01:21;4.40;;;1.10;;
67132;SDS011;54052;53.542;49.408;2022-07-18T10:03:49;5.60;;;1.30;;
67132;SDS011;54052;53.542;49.408;2022-07-18T10:06:15;3.75;;;1.40;;
67132;SDS011;54052;53.542;49.408;2022-07-18T10:08:43;8.10;;;1.30;;
67132;SDS011;54052;53.542;49.408;2022-07-18T10:11:10;4.43;;;1.63;;
67132;SDS011;54052;53.542;49.408;2022-07-18T10:13:37;3.35;;;1.50;;
67132;SDS011;54052;53.542;49.408;2022-07-18T10:16:04;9.75;;;1.48;;
67132;SDS011;54052;53.542;49.408;2022-07-18T10:18:32;12.25;;;2.05;;
67132;SDS011;54052;53.542;49.408;2022-07-18T10:21:03;6.95;;;1.80;;
67132;SDS011;54052;53.542;49.408;2022-07-18T10:26:13;5.35;;;1.88;;
67132;SDS011;54052;53.542;49.408;2022-07-18T10:31:21;8.15;;;2.00;;
67132;SDS011;54052;53.542;49.408;2022-07-18T10:33:49;23.95;;;2.50;;
67132;SDS011;54052;53.542;49.408;2022-07-18T10:36:16;10.45;;;1.80;;
67132;SDS011;54052;53.542;49.408;2022-07-18T10:44:54;23.27;;;2.00;;
67132;SDS011;54052;53.542;49.408;2022-07-18T10:57:32;6.05;;;2.00;;
67132;SDS011;54052;53.542;49.408;2022-07-18T11:00:13;7.25;;;2.22;;
67132;SDS011;54052;53.542;49.408;2022-07-18T11:15:56;4.18;;;1.92;;
67132;SDS011;54052;53.542;49.408;2022-07-18T11:18:24;12.88;;;2.05;;
67132;SDS011;54052;53.542;49.408;2022-07-18T11:20:51;9.73;;;2.00;;
67132;SDS011;54052;53.542;49.408;2022-07-18T11:23:19;5.78;;;2.20;;
67132;SDS011;54052;53.542;49.408;2022-07-18T11:25:50;13.05;;;2.15;;
67132;SDS011;54052;53.542;49.408;2022-07-18T11:28:17;7.30;;;2.15;;
67132;SDS011;54052;53.542;49.408;2022-07-18T11:31:09;10.27;;;2.35;;
67132;SDS011;54052;53.542;49.408;2022-07-18T11:33:35;10.38;;;1.83;;
67132;SDS011;54052;53.542;49.408;2022-07-18T11:36:07;4.05;;;1.92;;
67132;SDS011;54052;53.542;49.408;2022-07-18T11:38:36;6.90;;;1.67;;
67132;SDS011;54052;53.542;49.408;2022-07-18T11:41:23;13.85;;;1.98;;
67132;SDS011;54052;53.542;49.408;2022-07-18T11:43:50;8.60;;;1.85;;
67132;SDS011;54052;53.542;49.408;2022-07-18T11:46:18;10.30;;;1.95;;
67132;SDS011;54052;53.542;49.408;2022-07-18T11:48:46;7.45;;;2.22;;
67132;SDS011;54052;53.542;49.408;2022-07-18T11:51:15;5.85;;;2.05;;
67132;SDS011;54052;53.542;49.408;2022-07-18T11:53:43;6.70;;;1.67;;
67132;SDS011;54052;53.542;49.408;2022-07-18T11:56:11;5.32;;;1.48;;
67132;SDS011;54052;53.542;49.408;2022-07-18T11:58:38;6.15;;;1.50;;
67132;SDS011;54052;53.542;49.408;2022-07-18T12:01:06;6.68;;;1.55;;
67132;SDS011;54052;53.542;49.408;2022-07-18T12:03:36;9.60;;;1.70;;
67132;SDS011;54052;53.542;49.408;2022-07-18T12:06:22;3.25;;;1.60;;
67132;SDS011;54052;53.542;49.408;2022-07-18T12:08:50;5.72;;;1.92;;
67132;SDS011;54052;53.542;49.408;2022-07-18T12:16:39;2.42;;;1.48;;
67132;SDS011;54052;53.542;49.408;2022-07-18T12:19:20;9.27;;;2.38;;
67132;SDS011;54052;53.542;49.408;2022-07-18T12:21:57;11.77;;;1.50;;
67132;SDS011;54052;53.542;49.408;2022-07-18T12:24:50;2.53;;;1.42;;
67132;SDS011;54052;53.542;49.408;2022-07-18T12:27:23;20.00;;;1.85;;
67132;SDS011;54052;53.542;49.408;2022-07-18T12:30:20;12.75;;;1.75;;
67132;SDS011;54052;53.542;49.408;2022-07-18T12:32:50;18.17;;;1.77;;
67132;SDS011;54052;53.542;49.408;2022-07-18T12:37:51;7.32;;;1.48;;
67132;SDS011;54052;53.542;49.408;2022-07-18T12:40:19;5.80;;;1.75;;
67132;SDS011;54052;53.542;49.408;2022-07-18T12:42:46;7.22;;;1.65;;
67132;SDS011;54052;53.542;49.408;2022-07-18T12:45:12;4.28;;;1.50;;
67132;SDS011;54052;53.542;49.408;2022-07-18T12:47:39;3.15;;;1.40;;
67132;SDS011;54052;53.542;49.408;2022-07-18T12:50:06;3.25;;;1.20;;
67132;SDS011;54052;53.542;49.408;2022-07-18T12:52:33;11.82;;;2.17;;
67132;SDS011;54052;53.542;49.408;2022-07-18T12:54:59;6.57;;;1.95;;
67132;SDS011;54052;53.542;49.408;2022-07-18T12:57:25;7.82;;;1.60;;
67132;SDS011;54052;53.542;49.408;2022-07-18T12:59:52;6.78;;;1.63;;
67132;SDS011;54052;53.542;49.408;2022-07-18T13:02:18;7.15;;;1.88;;
67132;SDS011;54052;53.542;49.408;2022-07-18T13:04:44;10.05;;;1.42;;
67132;SDS011;54052;53.542;49.408;2022-07-18T13:07:11;3.08;;;1.83;;
67132;SDS011;54052;53.542;49.408;2022-07-18T13:09:37;7.07;;;1.50;;
67132;SDS011;54052;53.542;49.408;2022-07-18T13:12:03;19.25;;;1.80;;
67132;SDS011;54052;53.542;49.408;2022-07-18T13:14:30;8.20;;;1.88;;
67132;SDS011;54052;53.542;49.408;2022-07-18T13:16:56;9.40;;;1.95;;
67132;SDS011;54052;53.542;49.408;2022-07-18T13:19:22;9.82;;;1.38;;
67132;SDS011;54052;53.542;49.408;2022-07-18T13:21:48;5.40;;;1.52;;
67132;SDS011;54052;53.542;49.408;2022-07-18T13:24:14;7.15;;;1.70;;
67132;SDS011;54052;53.542;49.408;2022-07-18T13:26:41;10.52;;;1.73;;
67132;SDS011;54052;53.542;49.408;2022-07-18T13:29:07;10.80;;;1.80;;
67132;SDS011;54052;53.542;49.408;2022-07-18T13:31:34;12.23;;;2.67;;
67132;SDS011;54052;53.542;49.408;2022-07-18T13:34:02;9.65;;;1.98;;
67132;SDS011;54052;53.542;49.408;2022-07-18T13:36:28;17.55;;;3.03;;
67132;SDS011;54052;53.542;49.408;2022-07-18T13:38:55;11.00;;;2.05;;
67132;SDS011;54052;53.542;49.408;2022-07-18T13:41:21;4.63;;;1.65;;
67132;SDS011;54052;53.542;49.408;2022-07-18T13:43:47;5.85;;;1.70;;
67132;SDS011;54052;53.542;49.408;2022-07-18T13:46:13;9.02;;;1.58;;
67132;SDS011;54052;53.542;49.408;2022-07-18T13:48:39;3.50;;;1.77;;
67132;SDS011;54052;53.542;49.408;2022-07-18T13:51:06;11.40;;;2.00;;
67132;SDS011;54052;53.542;49.408;2022-07-18T13:53:32;7.57;;;1.95;;
67132;SDS011;54052;53.542;49.408;2022-07-18T13:55:58;4.47;;;1.67;;
67132;SDS011;54052;53.542;49.408;2022-07-18T13:58:24;6.90;;;1.70;;
67132;SDS011;54052;53.542;49.408;2022-07-18T14:00:51;9.35;;;2.28;;
67132;SDS011;54052;53.542;49.408;2022-07-18T14:03:17;5.20;;;1.73;;
67132;SDS011;54052;53.542;49.408;2022-07-18T14:05:43;3.80;;;1.73;;
67132;SDS011;54052;53.542;49.408;2022-07-18T14:08:09;2.63;;;1.95;;
67132;SDS011;54052;53.542;49.408;2022-07-18T14:10:36;9.35;;;2.00;;
67132;SDS011;54052;53.542;49.408;2022-07-18T14:13:02;14.50;;;2.17;;
67132;SDS011;54052;53.542;49.408;2022-07-18T14:15:28;11.23;;;2.70;;
67132;SDS011;54052;53.542;49.408;2022-07-18T14:17:55;5.63;;;2.75;;
67132;SDS011;54052;53.542;49.408;2022-07-18T14:20:21;4.65;;;2.33;;
67132;SDS011;54052;53.542;49.408;2022-07-18T14:22:47;8.40;;;2.60;;
67132;SDS011;54052;53.542;49.408;2022-07-18T14:25:15;20.65;;;2.13;;
67132;SDS011;54052;53.542;49.408;2022-07-18T14:27:42;12.77;;;2.85;;
67132;SDS011;54052;53.542;49.408;2022-07-18T14:30:11;8.70;;;2.67;;
67132;SDS011;54052;53.542;49.408;2022-07-18T14:32:39;17.42;;;3.90;;
67132;SDS011;54052;53.542;49.408;2022-07-18T14:35:06;15.25;;;3.03;;
67132;SDS011;54052;53.542;49.408;2022-07-18T14:37:33;7.82;;;3.42;;
67132;SDS011;54052;53.542;49.408;2022-07-18T14:39:59;11.48;;;4.80;;
67132;SDS011;54052;53.542;49.408;2022-07-18T14:42:26;22.35;;;5.68;;
67132;SDS011;54052;53.542;49.408;2022-07-18T14:44:52;5.13;;;3.15;;
67132;SDS011;54052;53.542;49.408;2022-07-18T14:47:19;10.02;;;3.55;;
67132;SDS011;54052;53.542;49.408;2022-07-18T14:49:45;13.82;;;2.80;;
67132;SDS011;54052;53.542;49.408;2022-07-18T14:52:11;22.67;;;5.35;;
67132;SDS011;54052;53.542;49.408;2022-07-18T14:54:38;33.90;;;5.13;;
67132;SDS011;54052;53.542;49.408;2022-07-18T14:57:04;11.60;;;3.13;;
67132;SDS011;54052;53.542;49.408;2022-07-18T14:59:31;14.73;;;3.42;;
67132;SDS011;54052;53.542;49.408;2022-07-18T15:01:57;16.40;;;3.30;;
67132;SDS011;54052;53.542;49.408;2022-07-18T15:04:27;19.08;;;4.55;;
67132;SDS011;54052;53.542;49.408;2022-07-18T15:07:07;18.00;;;3.17;;
67132;SDS011;54052;53.542;49.408;2022-07-18T15:09:33;8.48;;;2.42;;
67132;SDS011;54052;53.542;49.408;2022-07-18T15:11:59;9.52;;;1.95;;
67132;SDS011;54052;53.542;49.408;2022-07-18T15:14:25;17.30;;;4.10;;
67132;SDS011;54052;53.542;49.408;2022-07-18T15:16:52;7.25;;;2.08;;